Main page
METAR-TAF:

METAR-TAF

Airports :

Margaret Ekpo International Airport

Calabar, Nigeria

latitude: 04-58N, longitude: 008-21E, elevation: 63 m

METAR: missing

Time: 15:03 (14:03 UTC)

Forecast

The report was made 3 hours and 3 minutes ago, at 11:00 UTC
Forecast valid from 05 at 12 UTC to 06 at 18 UTC
Wind 5 kt from the Southwest
Visibility 10 km or more
Scattered clouds at a height of 1200 ft
Becoming
from 05 at 18 UTC to 05 at 20 UTC
Few clouds at a height of 800 ft
Probability 30% :
Temporary
from 06 at 04 UTC to 06 at 07 UTC
Visibility: 5000 m
mist, haze

TAF: DNCA 051100Z 0512/0618 22005KT 9999 SCT012 BECMG 0518/0520 FEW008 PROB30 TEMPO 0604/0607 5000 BR HZ

Weather observations and forecasts of more than 4000 airports (METAR and TAF reports).

The available stations are represented by yellow and red dots on the map.

Hover mouse over dot to see the name of the station.

Then click to see weather observations and forecasts.

To change the map : click on the green buttons with a black cross to zoom in, on the green button with a dash to zoom out, or on the green arrows for adjacent maps.


METAR-TAF: